CSN396 WMKP-ZGGG
Flight info
| Callsign | CSN396 |
|---|---|
| Flight time | N/A |
| Altitude | 33000 |
| Route | BETNU1A BETNU W546 VKB M765 IGARI/K0872F330 M765 BITOD M755 KISAN/N0469F330 M755 TIA/N0447F270 B329 VILAO/K0857F350 A202 ASSAD/K0856S1070 A202 SAMAS G221 BIGRO DCT UDUTI DCT GYA GYA9 |
| Aircraft | A321/M-SDE3FGHIRWY/LB1 |
Departure
| Time | 2026-04-28 14:58 |
|---|---|
| Airport | Penang International Airport (WMKP) |
Arrival
| Time | N/A |
|---|---|
| Airport | Guangzhou Baiyun International Airport (ZGGG) |
| Time | Latitude | Longitude | Altitude | Speed | Heading |
|---|---|---|---|---|---|
| 2026-04-28 14:46 | 5.29133 | 100.26569 | -121 ft | 0 kts | 311° |
| 2026-04-28 14:51 | 5.29132 | 100.26571 | 24 ft | 1 kts | 311° |
| 2026-04-28 14:51 | 5.29121 | 100.26584 | 26 ft | 3 kts | 311° |
| 2026-04-28 14:51 | 5.29107 | 100.26599 | 24 ft | 3 kts | 311° |
| 2026-04-28 14:52 | 5.29096 | 100.26611 | 26 ft | 3 kts | 308° |
| 2026-04-28 14:52 | 5.29088 | 100.26626 | 27 ft | 3 kts | 269° |
| 2026-04-28 14:52 | 5.29092 | 100.26642 | 25 ft | 3 kts | 228° |
| 2026-04-28 14:52 | 5.29102 | 100.26652 | 26 ft | 1 kts | 221° |
| 2026-04-28 14:54 | 5.29101 | 100.26652 | 27 ft | 1 kts | 221° |
| 2026-04-28 14:55 | 5.29062 | 100.26617 | 24 ft | 13 kts | 221° |
| 2026-04-28 14:55 | 5.28988 | 100.26550 | 23 ft | 15 kts | 221° |
| 2026-04-28 14:55 | 5.28914 | 100.26484 | 23 ft | 10 kts | 221° |
| 2026-04-28 14:55 | 5.28854 | 100.26487 | 25 ft | 9 kts | 152° |
| 2026-04-28 14:56 | 5.28806 | 100.26534 | 23 ft | 11 kts | 131° |
| 2026-04-28 14:56 | 5.28746 | 100.26581 | 23 ft | 11 kts | 168° |
| 2026-04-28 14:56 | 5.28676 | 100.26606 | 23 ft | 11 kts | 137° |
| 2026-04-28 14:56 | 5.28632 | 100.26654 | 23 ft | 7 kts | 129° |
| 2026-04-28 14:57 | 5.28634 | 100.26700 | 23 ft | 7 kts | 62° |
| 2026-04-28 14:57 | 5.28657 | 100.26724 | 23 ft | 7 kts | 42° |
| 2026-04-28 14:57 | 5.28774 | 100.26831 | 24 ft | 47 kts | 42° |
| 2026-04-28 14:57 | 5.29183 | 100.27202 | 27 ft | 110 kts | 42° |
| 2026-04-28 14:58 | 5.29882 | 100.27837 | 26 ft | 160 kts | 42° |
| 2026-04-28 14:58 | 5.30796 | 100.28660 | 217 ft | 183 kts | 41° |
| 2026-04-28 14:58 | 5.31745 | 100.29505 | 798 ft | 184 kts | 41° |
| 2026-04-28 14:58 | 5.32719 | 100.30358 | 1361 ft | 186 kts | 40° |
| 2026-04-28 14:59 | 5.33707 | 100.31219 | 1856 ft | 192 kts | 40° |
| 2026-04-28 14:59 | 5.34751 | 100.32142 | 2000 ft | 208 kts | 41° |
| 2026-04-28 14:59 | 5.35868 | 100.33137 | 2140 ft | 222 kts | 41° |
| 2026-04-28 14:59 | 5.37069 | 100.34207 | 2240 ft | 241 kts | 41° |
| 2026-04-28 15:00 | 5.38377 | 100.35372 | 2452 ft | 260 kts | 41° |
| 2026-04-28 15:00 | 5.39747 | 100.36595 | 2983 ft | 265 kts | 41° |
| 2026-04-28 15:00 | 5.40976 | 100.37976 | 3562 ft | 270 kts | 63° |
| 2026-04-28 15:00 | 5.41450 | 100.39794 | 4159 ft | 272 kts | 85° |
| 2026-04-28 15:01 | 5.41458 | 100.41705 | 4799 ft | 274 kts | 92° |
| 2026-04-28 15:01 | 5.41328 | 100.43617 | 5429 ft | 275 kts | 94° |
| 2026-04-28 15:01 | 5.41202 | 100.45533 | 6068 ft | 276 kts | 93° |
| 2026-04-28 15:01 | 5.41126 | 100.47467 | 6665 ft | 278 kts | 91° |
| 2026-04-28 15:02 | 5.41105 | 100.49410 | 7233 ft | 280 kts | 90° |
| 2026-04-28 15:02 | 5.41122 | 100.51374 | 7787 ft | 283 kts | 89° |
| 2026-04-28 15:02 | 5.41164 | 100.53360 | 8360 ft | 285 kts | 89° |
| 2026-04-28 15:02 | 5.41221 | 100.55359 | 8896 ft | 288 kts | 88° |
| 2026-04-28 15:03 | 5.41285 | 100.57375 | 9425 ft | 291 kts | 88° |
| 2026-04-28 15:03 | 5.41351 | 100.59419 | 9943 ft | 294 kts | 88° |
| 2026-04-28 15:03 | 5.41417 | 100.61492 | 10259 ft | 305 kts | 88° |
| 2026-04-28 15:03 | 5.41484 | 100.63675 | 10382 ft | 322 kts | 88° |
| 2026-04-28 15:04 | 5.41554 | 100.65976 | 10506 ft | 338 kts | 88° |
| 2026-04-28 15:04 | 5.41629 | 100.68374 | 10623 ft | 353 kts | 88° |
| 2026-04-28 15:04 | 5.41707 | 100.70897 | 10745 ft | 367 kts | 88° |
| 2026-04-28 15:04 | 5.41783 | 100.73499 | 10906 ft | 379 kts | 88° |
| 2026-04-28 15:05 | 5.41860 | 100.76160 | 11281 ft | 384 kts | 88° |
| 2026-04-28 15:05 | 5.41939 | 100.78850 | 11720 ft | 386 kts | 89° |
| 2026-04-28 15:05 | 5.42019 | 100.81553 | 12181 ft | 389 kts | 89° |
| 2026-04-28 15:05 | 5.42100 | 100.84272 | 12647 ft | 391 kts | 89° |
| 2026-04-28 15:06 | 5.42181 | 100.87006 | 13107 ft | 393 kts | 89° |
| 2026-04-28 15:06 | 5.42262 | 100.89752 | 13564 ft | 396 kts | 89° |
| 2026-04-28 15:06 | 5.42346 | 100.92523 | 13963 ft | 399 kts | 89° |
| 2026-04-28 15:06 | 5.42430 | 100.95313 | 14356 ft | 401 kts | 89° |
| 2026-04-28 15:07 | 5.42515 | 100.98116 | 14772 ft | 403 kts | 89° |
| 2026-04-28 15:07 | 5.42598 | 101.00931 | 15180 ft | 405 kts | 89° |
| 2026-04-28 15:07 | 5.42682 | 101.03760 | 15591 ft | 407 kts | 88° |
| 2026-04-28 15:07 | 5.42931 | 101.06599 | 15988 ft | 410 kts | 80° |
| 2026-04-28 15:08 | 5.43456 | 101.09414 | 16388 ft | 412 kts | 80° |
| 2026-04-28 15:08 | 5.43985 | 101.12250 | 16799 ft | 414 kts | 80° |
| 2026-04-28 15:08 | 5.44513 | 101.15099 | 17190 ft | 416 kts | 80° |
| 2026-04-28 15:08 | 5.45040 | 101.17963 | 17573 ft | 418 kts | 80° |
| 2026-04-28 15:09 | 5.45570 | 101.20836 | 17953 ft | 420 kts | 80° |
| 2026-04-28 15:09 | 5.46101 | 101.23726 | 18294 ft | 422 kts | 80° |
| 2026-04-28 15:09 | 5.46636 | 101.26626 | 18599 ft | 424 kts | 80° |
| 2026-04-28 15:09 | 5.46993 | 101.28557 | 18795 ft | 425 kts | 80° |
| 2026-04-28 15:10 | 5.47720 | 101.32470 | 19188 ft | 428 kts | 80° |
| 2026-04-28 15:10 | 5.48268 | 101.35407 | 19468 ft | 429 kts | 80° |
| 2026-04-28 15:10 | 5.48818 | 101.38359 | 19747 ft | 431 kts | 80° |
| 2026-04-28 15:10 | 5.49369 | 101.41327 | 20034 ft | 433 kts | 80° |
| 2026-04-28 15:11 | 5.49918 | 101.44301 | 20310 ft | 435 kts | 80° |
| 2026-04-28 15:11 | 5.50468 | 101.47289 | 20587 ft | 436 kts | 80° |
| 2026-04-28 15:11 | 5.51019 | 101.50292 | 20835 ft | 438 kts | 80° |
| 2026-04-28 15:11 | 5.51572 | 101.53307 | 21080 ft | 440 kts | 80° |
| 2026-04-28 15:12 | 5.52128 | 101.56331 | 21333 ft | 442 kts | 80° |
| 2026-04-28 15:12 | 5.52690 | 101.59372 | 21575 ft | 444 kts | 80° |
| 2026-04-28 15:12 | 5.53256 | 101.62422 | 21805 ft | 445 kts | 79° |
| 2026-04-28 15:12 | 5.53824 | 101.65478 | 22042 ft | 447 kts | 79° |
| 2026-04-28 15:13 | 5.54394 | 101.68556 | 22280 ft | 449 kts | 80° |
| 2026-04-28 15:13 | 5.54963 | 101.71639 | 22518 ft | 450 kts | 80° |
| 2026-04-28 15:13 | 5.55534 | 101.74733 | 22751 ft | 452 kts | 80° |
| 2026-04-28 15:13 | 5.56105 | 101.77840 | 22986 ft | 453 kts | 80° |
| 2026-04-28 15:14 | 5.56676 | 101.80957 | 23216 ft | 455 kts | 79° |
| 2026-04-28 15:14 | 5.57252 | 101.84092 | 23434 ft | 457 kts | 79° |
| 2026-04-28 15:14 | 5.57840 | 101.87232 | 23618 ft | 459 kts | 78° |
| 2026-04-28 15:14 | 5.58781 | 101.90298 | 23788 ft | 461 kts | 67° |
| 2026-04-28 15:15 | 5.60269 | 101.93146 | 23964 ft | 463 kts | 57° |
| 2026-04-28 15:15 | 5.61539 | 101.94870 | 24083 ft | 464 kts | 50° |
| 2026-04-28 15:15 | 5.64699 | 101.97829 | 24320 ft | 467 kts | 36° |
| 2026-04-28 15:15 | 5.67422 | 101.99622 | 24482 ft | 469 kts | 33° |
| 2026-04-28 15:16 | 5.70169 | 102.01397 | 24666 ft | 470 kts | 33° |
| 2026-04-28 15:16 | 5.72920 | 102.03180 | 24856 ft | 471 kts | 33° |
| 2026-04-28 15:16 | 5.75680 | 102.04974 | 25035 ft | 473 kts | 33° |
| 2026-04-28 15:16 | 5.78443 | 102.06773 | 25228 ft | 474 kts | 33° |
| 2026-04-28 15:17 | 5.81209 | 102.08574 | 25419 ft | 475 kts | 33° |
| 2026-04-28 15:17 | 5.83987 | 102.10381 | 25610 ft | 476 kts | 33° |
| 2026-04-28 15:17 | 5.86771 | 102.12192 | 25812 ft | 477 kts | 33° |
| 2026-04-28 15:17 | 5.89565 | 102.14006 | 26018 ft | 479 kts | 33° |
| 2026-04-28 15:18 | 5.92365 | 102.15820 | 26226 ft | 479 kts | 33° |
| 2026-04-28 15:18 | 5.95167 | 102.17634 | 26516 ft | 478 kts | 33° |
| 2026-04-28 15:18 | 5.97955 | 102.19441 | 26790 ft | 477 kts | 33° |
| 2026-04-28 15:18 | 6.00740 | 102.21253 | 27065 ft | 476 kts | 33° |
| 2026-04-28 15:19 | 6.03511 | 102.23061 | 27336 ft | 475 kts | 33° |
| 2026-04-28 15:19 | 6.06283 | 102.24871 | 27628 ft | 475 kts | 33° |
| 2026-04-28 15:19 | 6.08118 | 102.26068 | 27809 ft | 474 kts | 33° |
| 2026-04-28 15:19 | 6.10882 | 102.27869 | 28086 ft | 473 kts | 33° |
| 2026-04-28 15:20 | 6.14494 | 102.30375 | 28463 ft | 471 kts | 40° |
| 2026-04-28 15:20 | 6.16099 | 102.31848 | 28641 ft | 471 kts | 46° |
| 2026-04-28 15:20 | 6.18197 | 102.34366 | 28911 ft | 470 kts | 55° |
| 2026-04-28 15:20 | 6.19959 | 102.37124 | 29173 ft | 469 kts | 57° |
| 2026-04-28 15:21 | 6.21695 | 102.39901 | 29450 ft | 468 kts | 57° |
| 2026-04-28 15:21 | 6.23432 | 102.42671 | 29716 ft | 468 kts | 57° |
| 2026-04-28 15:21 | 6.25168 | 102.45428 | 29975 ft | 467 kts | 57° |
| 2026-04-28 15:21 | 6.26907 | 102.48181 | 30197 ft | 466 kts | 57° |
| 2026-04-28 15:22 | 6.28644 | 102.50929 | 30417 ft | 466 kts | 57° |
| 2026-04-28 15:22 | 6.30384 | 102.53679 | 30620 ft | 466 kts | 57° |
| 2026-04-28 15:22 | 6.32122 | 102.56427 | 30828 ft | 465 kts | 57° |
| 2026-04-28 15:22 | 6.33857 | 102.59175 | 31016 ft | 466 kts | 57° |
| 2026-04-28 15:23 | 6.35591 | 102.61925 | 31198 ft | 466 kts | 57° |
| 2026-04-28 15:23 | 6.37322 | 102.64678 | 31416 ft | 466 kts | 57° |
| 2026-04-28 15:23 | 6.39049 | 102.67428 | 31636 ft | 466 kts | 57° |
| 2026-04-28 15:23 | 6.40779 | 102.70182 | 31832 ft | 465 kts | 57° |
| 2026-04-28 15:24 | 6.42507 | 102.72928 | 32031 ft | 465 kts | 56° |
| 2026-04-28 15:24 | 6.44238 | 102.75677 | 32229 ft | 465 kts | 56° |
| 2026-04-28 15:24 | 6.45970 | 102.78429 | 32429 ft | 465 kts | 56° |
| 2026-04-28 15:24 | 6.47699 | 102.81176 | 32629 ft | 465 kts | 56° |
| 2026-04-28 15:25 | 6.49414 | 102.83934 | 32821 ft | 465 kts | 57° |
| 2026-04-28 15:25 | 6.52755 | 102.89538 | 32894 ft | 468 kts | 58° |
| 2026-04-28 15:26 | 6.56063 | 102.95190 | 32895 ft | 469 kts | 58° |
| 2026-04-28 15:26 | 6.59395 | 103.00829 | 32894 ft | 469 kts | 58° |
| 2026-04-28 15:27 | 6.62752 | 103.06459 | 32882 ft | 469 kts | 58° |
| 2026-04-28 15:27 | 6.66115 | 103.12085 | 32895 ft | 469 kts | 58° |
| 2026-04-28 15:28 | 6.69464 | 103.17721 | 32898 ft | 470 kts | 58° |
| 2026-04-28 15:28 | 6.72819 | 103.23366 | 32904 ft | 470 kts | 58° |
| 2026-04-28 15:29 | 6.76170 | 103.29012 | 32909 ft | 470 kts | 58° |
| 2026-04-28 15:29 | 6.79521 | 103.34666 | 32910 ft | 471 kts | 58° |
| 2026-04-28 15:30 | 6.82880 | 103.40325 | 32914 ft | 471 kts | 58° |
| 2026-04-28 15:30 | 6.86242 | 103.45978 | 32910 ft | 471 kts | 58° |
| 2026-04-28 15:31 | 6.89607 | 103.51630 | 32910 ft | 471 kts | 58° |
| 2026-04-28 15:31 | 6.92961 | 103.57291 | 32913 ft | 470 kts | 58° |
| 2026-04-28 15:32 | 6.96314 | 103.62936 | 32911 ft | 470 kts | 58° |
| 2026-04-28 15:32 | 6.99703 | 103.68571 | 32909 ft | 470 kts | 57° |
| 2026-04-28 15:33 | 7.03094 | 103.74202 | 32909 ft | 471 kts | 57° |
| 2026-04-28 15:33 | 7.06490 | 103.79840 | 32914 ft | 471 kts | 58° |
| 2026-04-28 15:34 | 7.09879 | 103.85477 | 32913 ft | 471 kts | 58° |
| 2026-04-28 15:34 | 7.13264 | 103.91127 | 32912 ft | 471 kts | 58° |
| 2026-04-28 15:35 | 7.16644 | 103.96771 | 32912 ft | 471 kts | 58° |
| 2026-04-28 15:35 | 7.21723 | 104.05236 | 32909 ft | 470 kts | 55° |
| 2026-04-28 15:36 | 7.23734 | 104.07809 | 32911 ft | 468 kts | 44° |
| 2026-04-28 15:36 | 7.26176 | 104.09965 | 32907 ft | 466 kts | 34° |
| 2026-04-28 15:36 | 7.31962 | 104.12769 | 32893 ft | 463 kts | 14° |
| 2026-04-28 15:37 | 7.38286 | 104.13921 | 32888 ft | 462 kts | 8° |
| 2026-04-28 15:37 | 7.44638 | 104.14990 | 32892 ft | 463 kts | 9° |
| 2026-04-28 15:38 | 7.51001 | 104.16064 | 32900 ft | 464 kts | 8° |
| 2026-04-28 15:38 | 7.57372 | 104.17127 | 32901 ft | 464 kts | 8° |
| 2026-04-28 15:39 | 7.63751 | 104.18180 | 32902 ft | 464 kts | 8° |
| 2026-04-28 15:39 | 7.70127 | 104.19241 | 32906 ft | 465 kts | 8° |
| 2026-04-28 15:40 | 7.76505 | 104.20318 | 32909 ft | 465 kts | 8° |
| 2026-04-28 15:40 | 7.82881 | 104.21386 | 32906 ft | 465 kts | 8° |
| 2026-04-28 15:41 | 7.89266 | 104.22458 | 32902 ft | 465 kts | 8° |
| 2026-04-28 15:41 | 7.95648 | 104.23528 | 32899 ft | 465 kts | 8° |
| 2026-04-28 15:42 | 8.02035 | 104.24591 | 32901 ft | 465 kts | 8° |
| 2026-04-28 15:42 | 8.08429 | 104.25656 | 32906 ft | 466 kts | 8° |
| 2026-04-28 15:43 | 8.14823 | 104.26722 | 32906 ft | 466 kts | 8° |
| 2026-04-28 15:43 | 8.21229 | 104.27799 | 32910 ft | 467 kts | 8° |
| 2026-04-28 15:44 | 8.27639 | 104.28877 | 32912 ft | 467 kts | 8° |
| 2026-04-28 15:44 | 8.34044 | 104.29950 | 32914 ft | 467 kts | 8° |
| 2026-04-28 15:45 | 8.40454 | 104.31020 | 32913 ft | 467 kts | 8° |
| 2026-04-28 15:45 | 8.46862 | 104.32091 | 32915 ft | 467 kts | 8° |
| 2026-04-28 15:46 | 8.53263 | 104.33159 | 32912 ft | 466 kts | 8° |
| 2026-04-28 15:46 | 8.59660 | 104.34241 | 32910 ft | 466 kts | 8° |
| 2026-04-28 15:47 | 8.66059 | 104.35318 | 32911 ft | 466 kts | 8° |
| 2026-04-28 15:47 | 8.72460 | 104.36386 | 32913 ft | 466 kts | 8° |
| 2026-04-28 15:48 | 8.78856 | 104.37461 | 32911 ft | 466 kts | 8° |
| 2026-04-28 15:48 | 8.85247 | 104.38531 | 32910 ft | 465 kts | 8° |
| 2026-04-28 15:49 | 8.91635 | 104.39613 | 32910 ft | 465 kts | 8° |
| 2026-04-28 15:49 | 8.98017 | 104.40695 | 32912 ft | 465 kts | 8° |
| 2026-04-28 15:50 | 9.04399 | 104.41762 | 32910 ft | 465 kts | 8° |
| 2026-04-28 15:50 | 9.10775 | 104.42830 | 32911 ft | 465 kts | 8° |
| 2026-04-28 15:51 | 9.17155 | 104.43904 | 32912 ft | 465 kts | 8° |
| 2026-04-28 15:51 | 9.23532 | 104.44983 | 32909 ft | 464 kts | 8° |
| 2026-04-28 15:52 | 9.29909 | 104.46057 | 32911 ft | 464 kts | 8° |
| 2026-04-28 15:52 | 9.36282 | 104.47128 | 32907 ft | 464 kts | 8° |
| 2026-04-28 15:53 | 9.42651 | 104.48202 | 32908 ft | 464 kts | 8° |
| 2026-04-28 15:53 | 9.49023 | 104.49276 | 32910 ft | 464 kts | 8° |
| 2026-04-28 15:54 | 9.55392 | 104.50353 | 32909 ft | 464 kts | 8° |
| 2026-04-28 15:54 | 9.61755 | 104.51428 | 32903 ft | 463 kts | 8° |
| 2026-04-28 15:55 | 9.68114 | 104.52501 | 32906 ft | 463 kts | 7° |
| 2026-04-28 15:55 | 9.74465 | 104.53571 | 32898 ft | 462 kts | 7° |
| 2026-04-28 15:56 | 9.80810 | 104.54645 | 32900 ft | 462 kts | 8° |
| 2026-04-28 15:56 | 9.87153 | 104.55723 | 32901 ft | 462 kts | 7° |
| 2026-04-28 15:57 | 9.93499 | 104.56798 | 32903 ft | 463 kts | 7° |
| 2026-04-28 15:57 | 9.99851 | 104.57860 | 32898 ft | 463 kts | 7° |
| 2026-04-28 15:58 | 10.06203 | 104.58932 | 32903 ft | 463 kts | 7° |
| 2026-04-28 15:58 | 10.12545 | 104.60051 | 32906 ft | 463 kts | 8° |
| 2026-04-28 15:59 | 10.17857 | 104.61020 | 32903 ft | 463 kts | 8° |
| 2026-04-28 15:59 | 10.24206 | 104.62174 | 32901 ft | 463 kts | 8° |
| 2026-04-28 16:00 | 10.30555 | 104.63320 | 32914 ft | 464 kts | 8° |
| 2026-04-28 16:00 | 10.36911 | 104.64459 | 32909 ft | 464 kts | 8° |
| 2026-04-28 16:01 | 10.43267 | 104.65591 | 32910 ft | 464 kts | 8° |
| 2026-04-28 16:01 | 10.49615 | 104.66730 | 32913 ft | 464 kts | 8° |
| 2026-04-28 16:02 | 10.55936 | 104.68079 | 32899 ft | 465 kts | 13° |
| 2026-04-28 16:02 | 10.59048 | 104.68967 | 34461 ft | 465 kts | 14° |
| 2026-04-28 16:02 | 10.62161 | 104.69844 | 34440 ft | 463 kts | 15° |
| 2026-04-28 16:03 | 10.68349 | 104.71597 | 33871 ft | 461 kts | 15° |
| 2026-04-28 16:03 | 10.71441 | 104.72481 | 33262 ft | 461 kts | 15° |
| 2026-04-28 16:03 | 10.74523 | 104.73361 | 33023 ft | 462 kts | 15° |
| 2026-04-28 16:04 | 10.80732 | 104.75129 | 33007 ft | 465 kts | 15° |
| 2026-04-28 16:04 | 10.86959 | 104.76903 | 33009 ft | 465 kts | 15° |
| 2026-04-28 16:05 | 10.93193 | 104.78678 | 33010 ft | 465 kts | 15° |
| 2026-04-28 16:05 | 10.99422 | 104.80452 | 33008 ft | 465 kts | 15° |
| 2026-04-28 16:06 | 11.05659 | 104.82223 | 33012 ft | 465 kts | 15° |
| 2026-04-28 16:06 | 11.11891 | 104.84002 | 33017 ft | 466 kts | 15° |
| 2026-04-28 16:07 | 11.18129 | 104.85783 | 33019 ft | 466 kts | 15° |
| 2026-04-28 16:08 | 11.27492 | 104.88447 | 33021 ft | 466 kts | 15° |
| 2026-04-28 16:08 | 11.33734 | 104.90233 | 33021 ft | 466 kts | 15° |
| 2026-04-28 16:09 | 11.43200 | 104.92433 | 33022 ft | 465 kts | 11° |
| 2026-04-28 16:10 | 11.52737 | 104.94301 | 33023 ft | 465 kts | 11° |
| 2026-04-28 16:10 | 11.62249 | 104.96337 | 33023 ft | 466 kts | 12° |
| 2026-04-28 16:11 | 11.74936 | 104.99075 | 33022 ft | 466 kts | 12° |
| 2026-04-28 16:12 | 11.84449 | 105.01098 | 33019 ft | 465 kts | 11° |
| 2026-04-28 16:13 | 11.93955 | 105.03120 | 33023 ft | 465 kts | 12° |
| 2026-04-28 16:14 | 12.06616 | 105.05843 | 33018 ft | 465 kts | 12° |
| 2026-04-28 16:15 | 12.19277 | 105.08552 | 33014 ft | 465 kts | 12° |
| 2026-04-28 16:15 | 12.25606 | 105.09908 | 33015 ft | 465 kts | 12° |
| 2026-04-28 16:16 | 12.35109 | 105.11946 | 33019 ft | 465 kts | 12° |
| 2026-04-28 16:17 | 12.44617 | 105.13992 | 33022 ft | 466 kts | 12° |
| 2026-04-28 16:17 | 12.50958 | 105.15356 | 33023 ft | 465 kts | 12° |
| 2026-04-28 16:18 | 12.57292 | 105.16720 | 33024 ft | 465 kts | 12° |
| 2026-04-28 16:18 | 12.63638 | 105.18078 | 33023 ft | 466 kts | 12° |
| 2026-04-28 16:19 | 12.69975 | 105.19440 | 33023 ft | 465 kts | 12° |
| 2026-04-28 16:19 | 12.76310 | 105.20812 | 33023 ft | 465 kts | 12° |
| 2026-04-28 16:20 | 12.82646 | 105.22173 | 33021 ft | 465 kts | 12° |
| 2026-04-28 16:20 | 12.88976 | 105.23534 | 33018 ft | 465 kts | 12° |
| 2026-04-28 16:21 | 12.95304 | 105.24897 | 33020 ft | 465 kts | 12° |
| 2026-04-28 16:21 | 13.01645 | 105.26263 | 33021 ft | 465 kts | 12° |
| 2026-04-28 16:22 | 13.07983 | 105.27625 | 33022 ft | 465 kts | 12° |
| 2026-04-28 16:22 | 13.14317 | 105.29002 | 33022 ft | 465 kts | 12° |
| 2026-04-28 16:23 | 13.20658 | 105.30382 | 33020 ft | 466 kts | 12° |
| 2026-04-28 16:23 | 13.27001 | 105.31749 | 33026 ft | 466 kts | 12° |
| 2026-04-28 16:24 | 13.33352 | 105.33110 | 33029 ft | 466 kts | 12° |
| 2026-04-28 16:24 | 13.39698 | 105.34481 | 33026 ft | 466 kts | 12° |
| 2026-04-28 16:25 | 13.46045 | 105.35854 | 33030 ft | 466 kts | 12° |
| 2026-04-28 16:25 | 13.52391 | 105.37238 | 33030 ft | 466 kts | 12° |
| 2026-04-28 16:26 | 13.58727 | 105.38618 | 33025 ft | 465 kts | 12° |
| 2026-04-28 16:26 | 13.65067 | 105.39988 | 33025 ft | 465 kts | 12° |
| 2026-04-28 16:27 | 13.71397 | 105.41363 | 33022 ft | 465 kts | 12° |
| 2026-04-28 16:28 | 13.80901 | 105.43448 | 33026 ft | 465 kts | 12° |
| 2026-04-28 16:28 | 13.87185 | 105.45044 | 33025 ft | 465 kts | 14° |
| 2026-04-28 16:29 | 13.96569 | 105.47638 | 33022 ft | 465 kts | 14° |
| 2026-04-28 16:30 | 14.05967 | 105.50149 | 33026 ft | 465 kts | 14° |
| 2026-04-28 16:30 | 14.12244 | 105.51792 | 33024 ft | 465 kts | 14° |
| 2026-04-28 16:31 | 14.18508 | 105.53259 | 32984 ft | 456 kts | 11° |
| 2026-04-28 16:31 | 14.24565 | 105.54427 | 32975 ft | 457 kts | 10° |
| 2026-04-28 16:32 | 14.30853 | 105.55619 | 32982 ft | 461 kts | 11° |
| 2026-04-28 16:32 | 14.40323 | 105.57540 | 32995 ft | 463 kts | 11° |
| 2026-04-28 16:33 | 14.44553 | 105.58418 | 32999 ft | 464 kts | 11° |
| 2026-04-28 16:33 | 14.53029 | 105.60158 | 33009 ft | 465 kts | 11° |
| 2026-04-28 16:34 | 14.59384 | 105.61454 | 33014 ft | 465 kts | 11° |
| 2026-04-28 16:34 | 14.65729 | 105.62754 | 33019 ft | 465 kts | 11° |
| 2026-04-28 16:35 | 14.72081 | 105.64059 | 33023 ft | 465 kts | 11° |
| 2026-04-28 16:35 | 14.78434 | 105.65358 | 33024 ft | 466 kts | 11° |
| 2026-04-28 16:36 | 14.84752 | 105.66643 | 33023 ft | 466 kts | 11° |
| 2026-04-28 16:36 | 14.91107 | 105.67942 | 33026 ft | 466 kts | 11° |
| 2026-04-28 16:37 | 14.96431 | 105.69035 | 33024 ft | 466 kts | 11° |
| 2026-04-28 16:38 | 15.06996 | 105.71210 | 33026 ft | 466 kts | 11° |
| 2026-04-28 16:38 | 15.12282 | 105.72293 | 33028 ft | 466 kts | 11° |
| 2026-04-28 16:39 | 15.18630 | 105.73598 | 33030 ft | 466 kts | 11° |
| 2026-04-28 16:39 | 15.25006 | 105.74766 | 33026 ft | 465 kts | 8° |
| 2026-04-28 16:40 | 15.31422 | 105.75718 | 33029 ft | 465 kts | 7° |
| 2026-04-28 16:40 | 15.37834 | 105.76657 | 33027 ft | 465 kts | 8° |
| 2026-04-28 16:41 | 15.44242 | 105.77660 | 33028 ft | 465 kts | 8° |
| 2026-04-28 16:41 | 15.50645 | 105.78691 | 33025 ft | 465 kts | 8° |
| 2026-04-28 16:42 | 15.57017 | 105.79706 | 33026 ft | 465 kts | 8° |
| 2026-04-28 16:42 | 15.63417 | 105.80706 | 33027 ft | 465 kts | 8° |
| 2026-04-28 16:43 | 15.69816 | 105.81714 | 33023 ft | 465 kts | 8° |
| 2026-04-28 16:43 | 15.76209 | 105.82730 | 33028 ft | 465 kts | 8° |
| 2026-04-28 16:44 | 15.82616 | 105.83750 | 33023 ft | 465 kts | 8° |
| 2026-04-28 16:44 | 15.89012 | 105.84756 | 33027 ft | 465 kts | 8° |
| 2026-04-28 16:45 | 15.95409 | 105.85759 | 33023 ft | 465 kts | 8° |
| 2026-04-28 16:45 | 16.01811 | 105.86771 | 33023 ft | 465 kts | 8° |
| 2026-04-28 16:46 | 16.08202 | 105.87786 | 33025 ft | 465 kts | 8° |
| 2026-04-28 16:46 | 16.14601 | 105.88806 | 33023 ft | 465 kts | 8° |
| 2026-04-28 16:47 | 16.20989 | 105.89830 | 33022 ft | 465 kts | 8° |
| 2026-04-28 16:47 | 16.27389 | 105.90845 | 33020 ft | 465 kts | 8° |
| 2026-04-28 16:48 | 16.33779 | 105.91858 | 33026 ft | 465 kts | 8° |
| 2026-04-28 16:48 | 16.40176 | 105.92879 | 33022 ft | 465 kts | 8° |
| 2026-04-28 16:49 | 16.46570 | 105.93902 | 33025 ft | 465 kts | 8° |
| 2026-04-28 16:49 | 16.52968 | 105.94923 | 33023 ft | 465 kts | 8° |
| 2026-04-28 16:50 | 16.59358 | 105.95933 | 33024 ft | 465 kts | 8° |
| 2026-04-28 16:50 | 16.65750 | 105.96952 | 33024 ft | 465 kts | 8° |
| 2026-04-28 16:51 | 16.72145 | 105.97979 | 33024 ft | 465 kts | 8° |
| 2026-04-28 16:51 | 16.78541 | 105.99003 | 33024 ft | 465 kts | 8° |
| 2026-04-28 16:52 | 16.84934 | 106.00014 | 33023 ft | 465 kts | 8° |
| 2026-04-28 16:52 | 16.91333 | 106.01036 | 33026 ft | 465 kts | 8° |
| 2026-04-28 16:53 | 16.97729 | 106.02064 | 33022 ft | 465 kts | 8° |
| 2026-04-28 16:53 | 17.04129 | 106.03097 | 33026 ft | 465 kts | 8° |
| 2026-04-28 16:54 | 17.10521 | 106.04123 | 33027 ft | 465 kts | 8° |
| 2026-04-28 16:54 | 17.16916 | 106.05149 | 33026 ft | 465 kts | 8° |
| 2026-04-28 16:55 | 17.23323 | 106.06185 | 33026 ft | 465 kts | 8° |
| 2026-04-28 16:55 | 17.29707 | 106.07257 | 33021 ft | 465 kts | 13° |
| 2026-04-28 16:56 | 17.35654 | 106.09826 | 33021 ft | 465 kts | 33° |
| 2026-04-28 16:56 | 17.38202 | 106.11895 | 33021 ft | 464 kts | 44° |
| 2026-04-28 16:56 | 17.40357 | 106.14405 | 33019 ft | 464 kts | 54° |
| 2026-04-28 16:57 | 17.43892 | 106.20064 | 33019 ft | 465 kts | 57° |
| 2026-04-28 16:57 | 17.47398 | 106.25757 | 33021 ft | 465 kts | 57° |
| 2026-04-28 16:58 | 17.50914 | 106.31451 | 33018 ft | 465 kts | 57° |
| 2026-04-28 16:58 | 17.54423 | 106.37155 | 33022 ft | 465 kts | 57° |
| 2026-04-28 16:59 | 17.57921 | 106.42856 | 33023 ft | 465 kts | 57° |
| 2026-04-28 16:59 | 17.61419 | 106.48567 | 33027 ft | 465 kts | 57° |
| 2026-04-28 17:00 | 17.64926 | 106.54283 | 33025 ft | 465 kts | 57° |
| 2026-04-28 17:00 | 17.68435 | 106.59993 | 33021 ft | 465 kts | 57° |
| 2026-04-28 17:01 | 17.71930 | 106.65704 | 33024 ft | 465 kts | 57° |
| 2026-04-28 17:01 | 17.75406 | 106.71423 | 33021 ft | 465 kts | 57° |
| 2026-04-28 17:02 | 17.78880 | 106.77143 | 33021 ft | 465 kts | 57° |
| 2026-04-28 17:02 | 17.82354 | 106.82861 | 33019 ft | 465 kts | 57° |
| 2026-04-28 17:03 | 17.87569 | 106.91455 | 33023 ft | 465 kts | 57° |
| 2026-04-28 17:03 | 17.91057 | 106.97172 | 33022 ft | 465 kts | 57° |
| 2026-04-28 17:04 | 17.96308 | 107.05741 | 33023 ft | 465 kts | 57° |
| 2026-04-28 17:05 | 18.01543 | 107.14316 | 33022 ft | 465 kts | 57° |
| 2026-04-28 17:06 | 18.06766 | 107.22914 | 33021 ft | 465 kts | 57° |
| 2026-04-28 17:06 | 18.11988 | 107.31503 | 33022 ft | 465 kts | 57° |
| 2026-04-28 17:07 | 18.15470 | 107.37235 | 33022 ft | 465 kts | 57° |
| 2026-04-28 17:07 | 18.18945 | 107.42973 | 33024 ft | 465 kts | 57° |
| 2026-04-28 17:08 | 18.22420 | 107.48724 | 33026 ft | 465 kts | 58° |
| 2026-04-28 17:08 | 18.25889 | 107.54461 | 33024 ft | 465 kts | 57° |
| 2026-04-28 17:09 | 18.29367 | 107.60204 | 33024 ft | 465 kts | 57° |
| 2026-04-28 17:09 | 18.32843 | 107.65951 | 33025 ft | 465 kts | 57° |
| 2026-04-28 17:10 | 18.36716 | 107.71395 | 33024 ft | 465 kts | 50° |
| 2026-04-28 17:10 | 18.40849 | 107.76635 | 33025 ft | 465 kts | 50° |
| 2026-04-28 17:11 | 18.44984 | 107.81879 | 33027 ft | 466 kts | 50° |
| 2026-04-28 17:11 | 18.49117 | 107.87135 | 33027 ft | 465 kts | 50° |
| 2026-04-28 17:12 | 18.53244 | 107.92397 | 33027 ft | 465 kts | 50° |
| 2026-04-28 17:12 | 18.57375 | 107.97650 | 33026 ft | 465 kts | 50° |
| 2026-04-28 17:13 | 18.61501 | 108.02906 | 33023 ft | 465 kts | 50° |
| 2026-04-28 17:13 | 18.65592 | 108.08125 | 33023 ft | 465 kts | 50° |
| 2026-04-28 17:14 | 18.69712 | 108.13388 | 33019 ft | 465 kts | 50° |
| 2026-04-28 17:14 | 18.73820 | 108.18646 | 33019 ft | 464 kts | 50° |
| 2026-04-28 17:15 | 18.77928 | 108.23905 | 33019 ft | 464 kts | 50° |
| 2026-04-28 17:15 | 18.82043 | 108.29166 | 33018 ft | 464 kts | 50° |
| 2026-04-28 17:16 | 18.86153 | 108.34427 | 33017 ft | 465 kts | 50° |
| 2026-04-28 17:16 | 18.90259 | 108.39685 | 33020 ft | 464 kts | 50° |
| 2026-04-28 17:17 | 18.94364 | 108.44948 | 33109 ft | 464 kts | 50° |
| 2026-04-28 17:17 | 18.98472 | 108.50222 | 33109 ft | 464 kts | 51° |
| 2026-04-28 17:18 | 19.01906 | 108.54636 | 33109 ft | 464 kts | 50° |
| 2026-04-28 17:18 | 19.06004 | 108.59903 | 33109 ft | 464 kts | 51° |
| 2026-04-28 17:19 | 19.10107 | 108.65182 | 33109 ft | 464 kts | 51° |
| 2026-04-28 17:19 | 19.14205 | 108.70456 | 33111 ft | 464 kts | 51° |
| 2026-04-28 17:20 | 19.17616 | 108.74847 | 33113 ft | 464 kts | 51° |
| 2026-04-28 17:20 | 19.22401 | 108.81032 | 33115 ft | 464 kts | 51° |
| 2026-04-28 17:21 | 19.26490 | 108.86327 | 33116 ft | 465 kts | 51° |
| 2026-04-28 17:22 | 19.32635 | 108.94268 | 33118 ft | 465 kts | 51° |
| 2026-04-28 17:22 | 19.36735 | 108.99563 | 33120 ft | 465 kts | 51° |
| 2026-04-28 17:23 | 19.42878 | 109.07516 | 33122 ft | 465 kts | 51° |
| 2026-04-28 17:23 | 19.46964 | 109.12826 | 33121 ft | 465 kts | 51° |
| 2026-04-28 17:24 | 19.51048 | 109.18132 | 33121 ft | 465 kts | 51° |
| 2026-04-28 17:24 | 19.55129 | 109.23449 | 33120 ft | 465 kts | 51° |
| 2026-04-28 17:25 | 19.61182 | 109.31416 | 33118 ft | 464 kts | 51° |
| 2026-04-28 17:26 | 19.65232 | 109.36752 | 33118 ft | 464 kts | 51° |
| 2026-04-28 17:26 | 19.69282 | 109.42093 | 33116 ft | 464 kts | 51° |
| 2026-04-28 17:27 | 19.73327 | 109.47430 | 33115 ft | 464 kts | 51° |
| 2026-04-28 17:27 | 19.77372 | 109.52771 | 33113 ft | 464 kts | 51° |
| 2026-04-28 17:28 | 19.81421 | 109.58113 | 33113 ft | 464 kts | 51° |
| 2026-04-28 17:28 | 19.87490 | 109.66138 | 33114 ft | 464 kts | 51° |
| 2026-04-28 17:29 | 19.91532 | 109.71489 | 33115 ft | 464 kts | 51° |
| 2026-04-28 17:30 | 19.97604 | 109.79523 | 33117 ft | 465 kts | 51° |
| 2026-04-28 17:30 | 20.03665 | 109.87565 | 33118 ft | 465 kts | 51° |
| 2026-04-28 17:31 | 20.09724 | 109.95625 | 33121 ft | 465 kts | 51° |
| 2026-04-28 17:32 | 20.15776 | 110.03695 | 33120 ft | 464 kts | 51° |
| 2026-04-28 17:32 | 20.19795 | 110.09044 | 33121 ft | 465 kts | 51° |
| 2026-04-28 17:33 | 20.23824 | 110.14409 | 33123 ft | 465 kts | 51° |
| 2026-04-28 17:33 | 20.27210 | 110.18928 | 33124 ft | 465 kts | 51° |
| 2026-04-28 17:34 | 20.31902 | 110.25188 | 33124 ft | 465 kts | 51° |
| 2026-04-28 17:34 | 20.35982 | 110.30525 | 33122 ft | 464 kts | 51° |
| 2026-04-28 17:35 | 20.40076 | 110.35841 | 33122 ft | 465 kts | 51° |
| 2026-04-28 17:35 | 20.44169 | 110.41177 | 33123 ft | 465 kts | 51° |
| 2026-04-28 17:36 | 20.48248 | 110.46527 | 33124 ft | 465 kts | 51° |
| 2026-04-28 17:36 | 20.52339 | 110.51874 | 33125 ft | 465 kts | 50° |
| 2026-04-28 17:37 | 20.56544 | 110.57113 | 33124 ft | 465 kts | 49° |
| 2026-04-28 17:37 | 20.60797 | 110.62308 | 33123 ft | 465 kts | 49° |
| 2026-04-28 17:38 | 20.65019 | 110.67528 | 33122 ft | 464 kts | 49° |
| 2026-04-28 17:38 | 20.69211 | 110.72769 | 33120 ft | 464 kts | 50° |
| 2026-04-28 17:39 | 20.73407 | 110.78022 | 33120 ft | 464 kts | 49° |
| 2026-04-28 17:40 | 20.79700 | 110.85888 | 33119 ft | 464 kts | 49° |
| 2026-04-28 17:40 | 20.83899 | 110.91133 | 33119 ft | 464 kts | 49° |
| 2026-04-28 17:41 | 20.88101 | 110.96376 | 33120 ft | 464 kts | 49° |
| 2026-04-28 17:41 | 20.92296 | 111.01634 | 33121 ft | 464 kts | 50° |
| 2026-04-28 17:42 | 20.96484 | 111.06891 | 33120 ft | 464 kts | 50° |
| 2026-04-28 17:42 | 21.00694 | 111.12137 | 33120 ft | 464 kts | 49° |
| 2026-04-28 17:43 | 21.04915 | 111.17375 | 33119 ft | 464 kts | 49° |
| 2026-04-28 17:43 | 21.09119 | 111.22610 | 33119 ft | 464 kts | 49° |
| 2026-04-28 17:44 | 21.13327 | 111.27864 | 33120 ft | 465 kts | 49° |
| 2026-04-28 17:44 | 21.17531 | 111.33115 | 33123 ft | 465 kts | 49° |
| 2026-04-28 17:45 | 21.21741 | 111.38377 | 33124 ft | 465 kts | 49° |
| 2026-04-28 17:45 | 21.25945 | 111.43640 | 33124 ft | 465 kts | 49° |
| 2026-04-28 17:46 | 21.30147 | 111.48911 | 33125 ft | 465 kts | 49° |
| 2026-04-28 17:46 | 21.34346 | 111.54178 | 33123 ft | 464 kts | 49° |
| 2026-04-28 17:47 | 21.38571 | 111.59476 | 33123 ft | 464 kts | 49° |
| 2026-04-28 17:47 | 21.42771 | 111.64743 | 33123 ft | 465 kts | 49° |
| 2026-04-28 17:48 | 21.46939 | 111.69984 | 33124 ft | 465 kts | 50° |
| 2026-04-28 17:48 | 21.51129 | 111.75267 | 33124 ft | 465 kts | 50° |
| 2026-04-28 17:49 | 21.55467 | 111.80397 | 33122 ft | 464 kts | 40° |
| 2026-04-28 17:49 | 21.60904 | 111.84103 | 33121 ft | 464 kts | 22° |
| 2026-04-28 17:50 | 21.66973 | 111.86456 | 33121 ft | 464 kts | 19° |
| 2026-04-28 17:50 | 21.73042 | 111.88774 | 33120 ft | 464 kts | 19° |
| 2026-04-28 17:51 | 21.79134 | 111.91098 | 33120 ft | 464 kts | 19° |
| 2026-04-28 17:51 | 21.85223 | 111.93422 | 33121 ft | 464 kts | 20° |
| 2026-04-28 17:52 | 21.91230 | 111.95969 | 33122 ft | 464 kts | 22° |
| 2026-04-28 17:52 | 22.00123 | 112.00119 | 33124 ft | 464 kts | 23° |
| 2026-04-28 17:53 | 22.06063 | 112.02846 | 33124 ft | 464 kts | 22° |
| 2026-04-28 17:53 | 22.12031 | 112.05523 | 33125 ft | 464 kts | 22° |
| 2026-04-28 17:54 | 22.18000 | 112.08191 | 33125 ft | 464 kts | 22° |
| 2026-04-28 17:54 | 22.23967 | 112.10880 | 33126 ft | 465 kts | 22° |
| 2026-04-28 17:55 | 22.29934 | 112.13587 | 33126 ft | 465 kts | 22° |
| 2026-04-28 17:55 | 22.35886 | 112.16285 | 33126 ft | 465 kts | 22° |
| 2026-04-28 17:56 | 22.41854 | 112.18987 | 33127 ft | 465 kts | 22° |
| 2026-04-28 17:56 | 22.47814 | 112.21684 | 33127 ft | 465 kts | 22° |
| 2026-04-28 17:57 | 22.52771 | 112.23936 | 33127 ft | 465 kts | 22° |
| 2026-04-28 17:57 | 22.58728 | 112.26649 | 33127 ft | 465 kts | 22° |
| 2026-04-28 17:58 | 22.64680 | 112.29358 | 32755 ft | 460 kts | 22° |
| 2026-04-28 17:58 | 22.67592 | 112.30685 | 32615 ft | 448 kts | 22° |
| 2026-04-28 17:58 | 22.70426 | 112.31973 | 32489 ft | 436 kts | 22° |
| 2026-04-28 17:59 | 22.73191 | 112.33229 | 32356 ft | 425 kts | 22° |
| 2026-04-28 17:59 | 22.75891 | 112.34459 | 32098 ft | 417 kts | 22° |
| 2026-04-28 17:59 | 22.78550 | 112.35669 | 31723 ft | 413 kts | 22° |
| 2026-04-28 17:59 | 22.81182 | 112.36867 | 31298 ft | 409 kts | 22° |
| 2026-04-28 18:00 | 22.83796 | 112.38058 | 30897 ft | 406 kts | 22° |
| 2026-04-28 18:00 | 22.86393 | 112.39245 | 30483 ft | 404 kts | 22° |
| 2026-04-28 18:00 | 22.88976 | 112.40424 | 30076 ft | 401 kts | 22° |
| 2026-04-28 18:00 | 22.91560 | 112.41602 | 29449 ft | 404 kts | 22° |
| 2026-04-28 18:01 | 22.94146 | 112.42779 | 28989 ft | 403 kts | 22° |
| 2026-04-28 18:01 | 22.96734 | 112.43956 | 28471 ft | 403 kts | 22° |
| 2026-04-28 18:01 | 22.99320 | 112.45132 | 27944 ft | 404 kts | 22° |
| 2026-04-28 18:01 | 23.01918 | 112.46314 | 27389 ft | 404 kts | 22° |
| 2026-04-28 18:02 | 23.04515 | 112.47495 | 26823 ft | 405 kts | 22° |
| 2026-04-28 18:02 | 23.07123 | 112.48681 | 26253 ft | 406 kts | 22° |
| 2026-04-28 18:02 | 23.07722 | 112.48954 | 26110 ft | 407 kts | 23° |
| 2026-04-28 18:02 | 23.10334 | 112.50148 | 25521 ft | 408 kts | 22° |
| 2026-04-28 18:03 | 23.12953 | 112.51339 | 24935 ft | 408 kts | 22° |
| 2026-04-28 18:03 | 23.15548 | 112.52519 | 24340 ft | 409 kts | 22° |
| 2026-04-28 18:03 | 23.18207 | 112.53727 | 23841 ft | 407 kts | 22° |
| 2026-04-28 18:03 | 23.20813 | 112.54911 | 23402 ft | 404 kts | 22° |
| 2026-04-28 18:04 | 23.23398 | 112.56085 | 22962 ft | 402 kts | 22° |
| 2026-04-28 18:04 | 23.25932 | 112.57236 | 22534 ft | 399 kts | 22° |
| 2026-04-28 18:04 | 23.28484 | 112.58396 | 22103 ft | 396 kts | 22° |
| 2026-04-28 18:04 | 23.30920 | 112.59758 | 21660 ft | 393 kts | 34° |
| 2026-04-28 18:05 | 23.33135 | 112.61489 | 21197 ft | 391 kts | 36° |
| 2026-04-28 18:05 | 23.34612 | 112.62675 | 20886 ft | 389 kts | 36° |
| 2026-04-28 18:05 | 23.37477 | 112.64984 | 20280 ft | 385 kts | 36° |
| 2026-04-28 18:05 | 23.39623 | 112.66714 | 19820 ft | 383 kts | 36° |
| 2026-04-28 18:06 | 23.41757 | 112.68435 | 19354 ft | 380 kts | 36° |
| 2026-04-28 18:06 | 23.43872 | 112.70140 | 18885 ft | 377 kts | 36° |
| 2026-04-28 18:06 | 23.45979 | 112.71839 | 18410 ft | 375 kts | 36° |
| 2026-04-28 18:06 | 23.48063 | 112.73519 | 17940 ft | 372 kts | 36° |
| 2026-04-28 18:07 | 23.50138 | 112.75192 | 17466 ft | 369 kts | 36° |
| 2026-04-28 18:07 | 23.52196 | 112.76852 | 16996 ft | 367 kts | 36° |
| 2026-04-28 18:07 | 23.54240 | 112.78500 | 16528 ft | 364 kts | 36° |
| 2026-04-28 18:07 | 23.56273 | 112.80138 | 16058 ft | 362 kts | 36° |
| 2026-04-28 18:08 | 23.58284 | 112.81759 | 15586 ft | 359 kts | 36° |
| 2026-04-28 18:08 | 23.60290 | 112.83376 | 15109 ft | 357 kts | 36° |
| 2026-04-28 18:08 | 23.62273 | 112.84974 | 14635 ft | 354 kts | 36° |
| 2026-04-28 18:08 | 23.64249 | 112.86567 | 14158 ft | 352 kts | 36° |
| 2026-04-28 18:09 | 23.66206 | 112.88144 | 13595 ft | 347 kts | 36° |
| 2026-04-28 18:09 | 23.67996 | 112.89875 | 12900 ft | 342 kts | 51° |
| 2026-04-28 18:09 | 23.69377 | 112.91970 | 12180 ft | 339 kts | 56° |
| 2026-04-28 18:09 | 23.70689 | 112.94097 | 11529 ft | 335 kts | 56° |
| 2026-04-28 18:10 | 23.71941 | 112.96143 | 11391 ft | 314 kts | 57° |
| 2026-04-28 18:10 | 23.72815 | 112.98245 | 11103 ft | 300 kts | 79° |
| 2026-04-28 18:10 | 23.72901 | 113.00483 | 10606 ft | 294 kts | 94° |
| 2026-04-28 18:10 | 23.72730 | 113.02633 | 10081 ft | 293 kts | 96° |
| 2026-04-28 18:11 | 23.72527 | 113.04829 | 9548 ft | 290 kts | 96° |
| 2026-04-28 18:11 | 23.72320 | 113.07019 | 9041 ft | 290 kts | 96° |
| 2026-04-28 18:11 | 23.72114 | 113.09195 | 8706 ft | 288 kts | 96° |
| 2026-04-28 18:11 | 23.71909 | 113.11360 | 8363 ft | 286 kts | 96° |
| 2026-04-28 18:12 | 23.71704 | 113.13513 | 8017 ft | 285 kts | 96° |
| 2026-04-28 18:12 | 23.71501 | 113.15656 | 7674 ft | 283 kts | 96° |
| 2026-04-28 18:12 | 23.71299 | 113.17786 | 7329 ft | 282 kts | 96° |
| 2026-04-28 18:12 | 23.71098 | 113.19904 | 6982 ft | 280 kts | 96° |
| 2026-04-28 18:13 | 23.70898 | 113.22016 | 6641 ft | 279 kts | 96° |
| 2026-04-28 18:13 | 23.70699 | 113.24118 | 6301 ft | 277 kts | 96° |
| 2026-04-28 18:13 | 23.70502 | 113.26203 | 5958 ft | 276 kts | 96° |
| 2026-04-28 18:13 | 23.70306 | 113.28280 | 5623 ft | 275 kts | 96° |
| 2026-04-28 18:14 | 23.70110 | 113.30350 | 5284 ft | 273 kts | 96° |
| 2026-04-28 18:14 | 23.69918 | 113.32391 | 5096 ft | 266 kts | 96° |
| 2026-04-28 18:14 | 23.69647 | 113.34346 | 4961 ft | 255 kts | 110° |
| 2026-04-28 18:14 | 23.69112 | 113.35457 | 4874 ft | 247 kts | 130° |